Time;durP1;ratioP1;P1;durP2;ratioP2;P2;SDS_P1;SDS_P2;PMS_P1;PMS_P2;Temp;Humidity;BMP_temperature;BMP_pressure;BME280_temperature;BME280_humidity;BME280_pressure;Samples;Min_cycle;Max_cycle;Signal;HPM_P1;HPM_P2
2021/01/12 00:00:52;;;;;;;39.63;26.23;;;-1.20;99.90;;;;;;5091994;28;20300;-44
2021/01/12 00:03:20;;;;;;;35.90;24.98;;;-1.20;99.90;;;;;;5091787;28;20206;-45
2021/01/12 00:05:47;;;;;;;35.20;25.07;;;-1.20;99.90;;;;;;5095368;28;20210;-45
2021/01/12 00:08:15;;;;;;;39.47;26.17;;;-1.30;99.90;;;;;;5095936;28;20564;-45
2021/01/12 00:10:42;;;;;;;35.57;25.30;;;-1.30;99.90;;;;;;5095635;28;20290;-45
2021/01/12 00:13:09;;;;;;;34.23;24.93;;;-1.40;99.90;;;;;;5095512;28;20249;-46
2021/01/12 00:15:36;;;;;;;34.40;25.70;;;-1.40;99.90;;;;;;5095888;28;20249;-47
2021/01/12 00:18:03;;;;;;;40.10;27.30;;;-1.40;99.90;;;;;;5095769;28;20336;-48
2021/01/12 00:20:30;;;;;;;36.70;25.55;;;-1.50;99.90;;;;;;5095618;28;20630;-45
2021/01/12 00:22:57;;;;;;;34.63;25.43;;;-1.40;99.90;;;;;;5095572;28;20206;-46
2021/01/12 00:25:25;;;;;;;33.87;25.17;;;-1.50;99.90;;;;;;5095270;28;20782;-44
2021/01/12 00:27:55;;;;;;;35.07;24.97;;;-1.50;99.90;;;;;;5095827;28;20210;-44
2021/01/12 00:30:23;;;;;;;39.73;27.20;;;-1.50;99.90;;;;;;5095433;28;20248;-46
2021/01/12 00:32:50;;;;;;;37.47;25.73;;;-1.50;99.90;;;;;;5095235;28;20298;-49
2021/01/12 00:35:18;;;;;;;38.03;26.85;;;-1.50;99.90;;;;;;5095254;28;20657;-44
2021/01/12 00:37:45;;;;;;;34.93;24.80;;;-1.50;99.90;;;;;;5095266;28;20207;-44
2021/01/12 00:40:13;;;;;;;36.50;25.67;;;-1.40;99.90;;;;;;5095275;28;20213;-47
2021/01/12 00:42:41;;;;;;;32.72;24.67;;;-1.30;99.90;;;;;;5095198;28;20210;-47
2021/01/12 00:45:09;;;;;;;33.33;24.67;;;-1.30;99.90;;;;;;5095274;28;20346;-43
2021/01/12 00:47:36;;;;;;;38.07;25.97;;;-1.20;99.90;;;;;;5095049;28;20242;-45
2021/01/12 00:50:05;;;;;;;34.10;24.43;;;-1.20;99.90;;;;;;5094968;28;20249;-45
2021/01/12 00:52:32;;;;;;;35.87;25.00;;;-1.20;99.90;;;;;;5094866;28;20210;-48
2021/01/12 00:54:59;;;;;;;34.77;24.60;;;-1.20;99.90;;;;;;5094968;28;20268;-47
2021/01/12 00:57:26;;;;;;;42.37;25.70;;;-1.30;99.90;;;;;;5095038;28;20211;-46
2021/01/12 00:59:54;;;;;;;39.30;27.07;;;-1.30;99.90;;;;;;5095007;28;20202;-46
2021/01/12 01:02:21;;;;;;;34.03;24.63;;;-1.30;99.90;;;;;;5094716;28;20650;-46
2021/01/12 01:04:48;;;;;;;33.63;25.17;;;-1.40;99.90;;;;;;5094762;28;20206;-44
2021/01/12 01:07:16;;;;;;;33.33;24.93;;;-1.40;99.90;;;;;;5094408;28;20293;-44
2021/01/12 01:09:43;;;;;;;34.30;25.03;;;-1.40;99.90;;;;;;5094828;28;20210;-43
2021/01/12 01:12:13;;;;;;;31.70;23.95;;;-1.40;99.90;;;;;;5094450;28;20295;-43
2021/01/12 01:14:40;;;;;;;39.67;26.53;;;-1.40;99.90;;;;;;5094368;28;20694;-44
2021/01/12 01:17:09;;;;;;;34.47;25.33;;;-1.40;99.90;;;;;;5093593;28;20206;-42
2021/01/12 01:19:37;;;;;;;36.23;25.83;;;-1.40;99.90;;;;;;5094506;28;20363;-42
2021/01/12 01:22:03;;;;;;;44.73;28.30;;;-1.40;99.90;;;;;;5094721;28;20213;-42
2021/01/12 01:24:30;;;;;;;34.23;25.30;;;-1.30;99.90;;;;;;5094603;28;20198;-42
2021/01/12 01:26:58;;;;;;;34.00;25.43;;;-1.30;99.90;;;;;;5094425;28;20206;-42
2021/01/12 01:29:25;;;;;;;37.13;25.47;;;-1.30;99.90;;;;;;5094396;28;20304;-43
2021/01/12 01:31:52;;;;;;;39.90;26.40;;;-1.20;99.90;;;;;;5094329;28;20256;-42
2021/01/12 01:34:21;;;;;;;37.70;26.40;;;-1.20;99.90;;;;;;5094021;28;20230;-42
2021/01/12 01:36:48;;;;;;;54.27;34.20;;;-1.20;99.90;;;;;;5094324;28;20616;-42
2021/01/12 01:39:15;;;;;;;35.63;25.43;;;-1.20;99.90;;;;;;5094123;28;20211;-42
2021/01/12 01:41:42;;;;;;;59.93;36.83;;;-1.20;99.90;;;;;;5094120;28;20202;-42
2021/01/12 01:44:10;;;;;;;30.40;24.80;;;-1.20;99.90;;;;;;5093982;28;20370;-42
2021/01/12 01:46:37;;;;;;;39.40;26.73;;;-1.20;99.90;;;;;;5093919;28;20207;-43
2021/01/12 01:49:05;;;;;;;39.30;27.43;;;-1.30;99.90;;;;;;5093806;28;20740;-42
2021/01/12 01:51:33;;;;;;;33.27;23.23;;;-1.40;99.90;;;;;;5093955;28;20202;-43
2021/01/12 01:54:00;;;;;;;33.50;25.33;;;-1.40;99.90;;;;;;5093764;28;20570;-41
2021/01/12 01:56:28;;;;;;;36.67;25.50;;;-1.50;99.90;;;;;;5093669;28;20646;-41
2021/01/12 01:58:55;;;;;;;36.30;25.90;;;-1.50;99.90;;;;;;5093681;28;20290;-42
2021/01/12 02:01:22;;;;;;;35.20;25.40;;;-1.50;99.90;;;;;;5093518;28;20297;-41
2021/01/12 02:03:55;;;;;;;39.53;26.03;;;-1.50;99.90;;;;;;5093858;28;20202;-42
2021/01/12 02:06:27;;;;;;;33.80;24.17;;;-1.40;99.90;;;;;;5093713;28;20234;-45
2021/01/12 02:09:00;;;;;;;33.37;23.97;;;-1.40;99.90;;;;;;5093591;28;20679;-45
2021/01/12 02:11:31;;;;;;;36.27;26.03;;;-1.40;99.90;;;;;;5093338;28;20807;-48
2021/01/12 02:14:02;;;;;;;40.83;27.80;;;-1.40;99.90;;;;;;5093308;28;20238;-45
2021/01/12 02:16:30;;;;;;;37.70;26.13;;;-1.40;99.90;;;;;;5093584;28;20311;-43
2021/01/12 02:18:58;;;;;;;35.60;26.07;;;-1.50;99.90;;;;;;5093187;28;20217;-44
2021/01/12 02:21:26;;;;;;;36.90;25.43;;;-1.40;99.90;;;;;;5093122;28;20222;-43
2021/01/12 02:23:56;;;;;;;38.33;26.50;;;-1.50;99.90;;;;;;5093191;28;20234;-45
2021/01/12 02:26:24;;;;;;;37.33;27.57;;;-1.40;99.90;;;;;;5093007;28;20242;-45
2021/01/12 02:28:52;;;;;;;39.40;25.30;;;-1.40;99.90;;;;;;5093168;28;20207;-44
2021/01/12 02:31:20;;;;;;;32.13;23.97;;;-1.40;99.90;;;;;;5093169;28;20217;-44
2021/01/12 02:33:49;;;;;;;33.93;24.90;;;-1.40;99.90;;;;;;5092958;28;20261;-48
2021/01/12 02:36:21;;;;;;;33.00;25.17;;;-1.40;99.90;;;;;;5092868;28;20593;-44
2021/01/12 02:38:48;;;;;;;38.20;27.47;;;-1.40;99.90;;;;;;5092995;28;20392;-43
2021/01/12 02:41:17;;;;;;;36.80;26.40;;;-1.30;99.90;;;;;;5092847;28;20302;-44
2021/01/12 02:43:45;;;;;;;35.53;26.03;;;-1.30;99.90;;;;;;5093113;28;20233;-44
2021/01/12 02:46:14;;;;;;;35.87;26.20;;;-1.30;99.90;;;;;;5092882;28;20641;-45
2021/01/12 02:48:42;;;;;;;35.27;26.30;;;-1.20;99.90;;;;;;5092836;28;20206;-45
2021/01/12 02:51:09;;;;;;;33.30;24.73;;;-1.20;99.90;;;;;;5092755;28;20249;-44
2021/01/12 02:53:36;;;;;;;36.80;26.98;;;-1.20;99.90;;;;;;5092643;28;20237;-43
2021/01/12 02:56:04;;;;;;;37.03;25.57;;;-1.20;99.90;;;;;;5092726;28;20780;-43
2021/01/12 02:58:31;;;;;;;34.90;25.47;;;-1.20;99.90;;;;;;5092781;28;20245;-44
2021/01/12 03:00:58;;;;;;;34.53;25.20;;;-1.20;99.90;;;;;;5092485;28;20245;-43
2021/01/12 03:03:26;;;;;;;33.03;24.07;;;-1.20;99.90;;;;;;5092582;28;20206;-43
2021/01/12 03:05:53;;;;;;;36.37;25.73;;;-1.20;99.90;;;;;;5092509;28;20289;-44
2021/01/12 03:08:20;;;;;;;34.63;25.43;;;-1.20;99.90;;;;;;5092451;28;20374;-45
2021/01/12 03:10:47;;;;;;;35.77;25.83;;;-1.10;99.90;;;;;;5092451;28;20233;-42
2021/01/12 03:13:14;;;;;;;37.60;26.13;;;-1.00;99.90;;;;;;5092567;28;20273;-43
2021/01/12 03:15:43;;;;;;;36.97;26.70;;;-1.00;99.90;;;;;;5092304;28;20254;-41
2021/01/12 03:18:09;;;;;;;40.07;26.93;;;-1.00;99.90;;;;;;5092317;28;20210;-42
2021/01/12 03:20:36;;;;;;;39.20;27.50;;;-1.00;99.90;;;;;;5092227;28;20206;-44
2021/01/12 03:23:04;;;;;;;33.50;24.37;;;-1.00;99.90;;;;;;5092799;28;20293;-43
2021/01/12 03:25:31;;;;;;;37.83;26.67;;;-1.00;99.90;;;;;;5092275;28;20294;-43
2021/01/12 03:27:58;;;;;;;39.33;28.57;;;-0.90;99.90;;;;;;5092149;28;20229;-45
2021/01/12 03:30:25;;;;;;;39.20;27.13;;;-1.00;99.90;;;;;;5092131;28;20647;-48
2021/01/12 03:32:53;;;;;;;38.17;27.83;;;-1.00;99.90;;;;;;5092111;28;20297;-49
2021/01/12 03:35:21;;;;;;;35.00;24.17;;;-1.00;99.90;;;;;;5092305;28;20325;-49
2021/01/12 03:37:48;;;;;;;37.40;25.70;;;-1.00;99.90;;;;;;5092121;28;20209;-45
2021/01/12 03:40:16;;;;;;;38.60;26.27;;;-1.00;99.90;;;;;;5091708;28;20210;-43
2021/01/12 03:42:43;;;;;;;34.72;25.20;;;-1.00;99.90;;;;;;5092056;28;20206;-46
2021/01/12 03:45:10;;;;;;;32.90;24.50;;;-1.00;99.90;;;;;;5092082;28;20215;-45
2021/01/12 03:47:37;;;;;;;36.57;25.33;;;-1.00;99.90;;;;;;5091880;28;20633;-48
2021/01/12 03:50:08;;;;;;;35.20;25.13;;;-1.00;99.90;;;;;;5092162;28;20598;-44
2021/01/12 03:52:35;;;;;;;33.90;25.17;;;-1.00;99.90;;;;;;5092032;28;20248;-45
2021/01/12 03:55:03;;;;;;;35.80;24.67;;;-1.00;99.90;;;;;;5092076;28;20234;-42
2021/01/12 03:57:31;;;;;;;33.58;24.60;;;-1.00;99.90;;;;;;5091955;28;20673;-51
2021/01/12 03:59:58;;;;;;;33.00;23.03;;;-1.00;99.90;;;;;;5091904;28;20702;-45
2021/01/12 04:02:25;;;;;;;31.90;23.77;;;-1.00;99.90;;;;;;5091806;28;20684;-41
2021/01/12 04:04:55;;;;;;;36.80;23.80;;;-1.00;99.90;;;;;;5092134;28;20256;-43
2021/01/12 04:07:23;;;;;;;35.67;22.27;;;-0.90;99.90;;;;;;5092072;28;20264;-42
2021/01/12 04:09:50;;;;;;;33.33;24.13;;;-0.90;99.90;;;;;;5091954;28;20298;-43
2021/01/12 04:12:17;;;;;;;32.13;22.67;;;-0.90;99.90;;;;;;5091598;28;20321;-43
2021/01/12 04:14:44;;;;;;;31.53;22.63;;;-0.90;99.90;;;;;;5091579;28;20262;-45
2021/01/12 04:17:11;;;;;;;32.75;22.90;;;-0.90;99.90;;;;;;5091963;28;20279;-43
2021/01/12 04:19:38;;;;;;;30.37;22.07;;;-0.90;99.90;;;;;;5091261;28;20301;-43
2021/01/12 04:22:05;;;;;;;30.33;22.87;;;-0.90;99.90;;;;;;5091667;28;20211;-45
2021/01/12 04:24:34;;;;;;;33.73;23.63;;;-0.90;99.90;;;;;;5091493;28;20302;-44
2021/01/12 04:27:01;;;;;;;30.48;22.08;;;-0.90;99.90;;;;;;5091552;28;20234;-44
2021/01/12 04:29:28;;;;;;;32.67;22.37;;;-0.90;99.90;;;;;;5091846;28;20252;-43
2021/01/12 04:31:55;;;;;;;33.60;23.60;;;-0.90;99.90;;;;;;5091557;28;20703;-44
2021/01/12 04:34:23;;;;;;;33.70;22.40;;;-0.90;99.90;;;;;;5091442;28;20230;-42
2021/01/12 04:36:50;;;;;;;28.83;22.37;;;-1.00;99.90;;;;;;5091577;28;20306;-42
2021/01/12 04:39:17;;;;;;;31.97;21.87;;;-1.00;99.90;;;;;;5091525;28;20302;-42
2021/01/12 04:41:45;;;;;;;31.47;22.23;;;-1.00;99.90;;;;;;5091405;28;20213;-41
2021/01/12 04:44:12;;;;;;;34.17;22.80;;;-1.00;99.90;;;;;;5091521;28;20272;-41
2021/01/12 04:46:39;;;;;;;30.50;21.93;;;-1.10;99.90;;;;;;5091249;28;20214;-41
2021/01/12 04:49:06;;;;;;;34.67;23.98;;;-1.10;99.90;;;;;;5091427;28;20213;-42
2021/01/12 04:51:35;;;;;;;32.80;21.92;;;-1.10;99.90;;;;;;5092609;28;20261;-41
2021/01/12 04:54:02;;;;;;;27.35;20.73;;;-1.10;99.90;;;;;;5094843;28;20293;-41
2021/01/12 04:56:30;;;;;;;24.48;18.33;;;-1.20;99.90;;;;;;5095161;28;20211;-41
2021/01/12 04:58:58;;;;;;;33.25;21.88;;;-1.10;99.90;;;;;;5094762;28;20626;-42
2021/01/12 05:01:25;;;;;;;24.67;18.70;;;-1.20;99.90;;;;;;5094746;28;20723;-41
2021/01/12 05:03:53;;;;;;;29.40;20.67;;;-1.20;99.90;;;;;;5094988;28;20677;-41
2021/01/12 05:06:22;;;;;;;29.80;21.00;;;-1.20;99.90;;;;;;5094724;28;20219;-42
2021/01/12 05:08:55;;;;;;;31.83;22.60;;;-1.20;99.90;;;;;;5094763;28;20301;-42
2021/01/12 05:11:25;;;;;;;28.67;20.77;;;-1.20;99.90;;;;;;5094651;28;20237;-42
2021/01/12 05:13:56;;;;;;;29.57;21.20;;;-1.10;99.90;;;;;;5094662;28;20214;-42
2021/01/12 05:16:25;;;;;;;26.67;19.90;;;-1.10;99.90;;;;;;5094476;28;20270;-42
2021/01/12 05:18:54;;;;;;;30.97;21.63;;;-1.10;99.90;;;;;;5094384;28;20218;-42
2021/01/12 05:21:24;;;;;;;29.47;19.97;;;-1.10;99.90;;;;;;5095561;28;20202;-41
2021/01/12 05:23:58;;;;;;;29.47;19.07;;;-1.00;99.90;;;;;;5094652;28;20293;-41
2021/01/12 05:26:31;;;;;;;30.33;21.87;;;-1.00;99.90;;;;;;5094598;28;20697;-42
2021/01/12 05:28:59;;;;;;;29.97;22.10;;;-1.00;99.90;;;;;;5094412;28;20298;-43
2021/01/12 05:31:28;;;;;;;29.07;19.63;;;-0.90;99.90;;;;;;5094356;28;20576;-43
2021/01/12 05:33:56;;;;;;;27.63;18.97;;;-0.90;99.90;;;;;;5094080;28;20390;-42
2021/01/12 05:36:23;;;;;;;28.43;18.87;;;-0.90;99.90;;;;;;5094217;28;20301;-42
2021/01/12 05:38:53;;;;;;;29.00;20.13;;;-0.80;99.90;;;;;;5094255;28;20248;-43
2021/01/12 05:41:26;;;;;;;28.60;18.87;;;-0.80;99.90;;;;;;5094201;28;20603;-42
2021/01/12 05:43:53;;;;;;;28.50;19.27;;;-0.70;99.90;;;;;;5094025;28;20297;-42
2021/01/12 05:46:21;;;;;;;25.90;17.77;;;-0.70;99.90;;;;;;5093944;28;20248;-44
2021/01/12 05:48:49;;;;;;;26.73;18.27;;;-0.70;99.90;;;;;;5093864;28;20211;-42
2021/01/12 05:51:17;;;;;;;26.73;20.50;;;-0.60;99.90;;;;;;5094149;28;20238;-42
2021/01/12 05:54:05;;;;;;;25.53;18.17;;;-0.60;99.90;;;;;;5093982;28;20213;-44
2021/01/12 05:56:33;;;;;;;24.90;17.87;;;-0.60;99.90;;;;;;5093796;28;20206;-42
2021/01/12 05:59:01;;;;;;;23.90;16.33;;;-0.60;99.90;;;;;;5093607;28;20309;-42
2021/01/12 06:01:43;;;;;;;24.42;17.27;;;-0.60;99.90;;;;;;5093770;28;20215;-41
2021/01/12 06:04:12;;;;;;;26.23;17.40;;;-0.60;99.90;;;;;;5093715;28;20219;-42
2021/01/12 06:06:41;;;;;;;20.73;16.17;;;-0.50;99.90;;;;;;5093545;28;20314;-43
2021/01/12 06:09:10;;;;;;;21.83;16.30;;;-0.50;99.90;;;;;;5093518;28;20610;-41
2021/01/12 06:11:40;;;;;;;22.47;18.33;;;-0.50;99.90;;;;;;5093344;28;20248;-42
2021/01/12 06:14:09;;;;;;;24.73;16.27;;;-0.40;99.90;;;;;;5093382;28;20242;-42
2021/01/12 06:16:38;;;;;;;21.27;16.27;;;-0.40;99.90;;;;;;5093563;28;20253;-43
2021/01/12 06:19:26;;;;;;;22.77;16.37;;;-0.30;99.90;;;;;;5093136;28;20228;-44
2021/01/12 06:22:13;;;;;;;19.73;14.75;;;-0.30;99.90;;;;;;5093236;28;20206;-49
2021/01/12 06:25:00;;;;;;;21.63;16.00;;;-0.30;99.90;;;;;;5093463;28;20406;-44
2021/01/12 06:27:29;;;;;;;21.13;14.27;;;-0.20;99.90;;;;;;5093127;28;20207;-42
2021/01/12 06:29:58;;;;;;;19.77;14.70;;;-0.20;99.90;;;;;;5093001;28;20645;-44
2021/01/12 06:32:27;;;;;;;20.50;14.77;;;-0.20;99.90;;;;;;5093279;28;20217;-43
2021/01/12 06:34:56;;;;;;;19.83;15.27;;;-0.10;99.90;;;;;;5092977;28;20595;-43
2021/01/12 06:37:24;;;;;;;19.23;13.73;;;0.00;99.90;;;;;;5092879;28;20210;-42
2021/01/12 06:39:53;;;;;;;18.00;12.73;;;0.00;99.90;;;;;;5093002;28;20211;-42
2021/01/12 06:42:25;;;;;;;17.53;14.10;;;0.10;99.90;;;;;;5093001;28;20577;-43
2021/01/12 06:44:53;;;;;;;17.23;13.50;;;0.10;99.90;;;;;;5093124;28;20302;-42
2021/01/12 06:47:23;;;;;;;21.17;14.07;;;0.10;99.90;;;;;;5092974;28;20293;-45
2021/01/12 06:50:01;;;;;;;21.40;14.87;;;0.20;99.90;;;;;;5093221;28;20302;-45
2021/01/12 06:52:29;;;;;;;17.00;12.63;;;0.20;99.90;;;;;;5092861;28;20207;-42
2021/01/12 06:55:06;;;;;;;17.38;12.90;;;0.30;99.90;;;;;;5092494;28;20265;-42
2021/01/12 06:57:35;;;;;;;15.63;12.00;;;0.30;99.90;;;;;;5092647;28;20699;-44
2021/01/12 07:00:06;;;;;;;17.80;12.10;;;0.40;99.90;;;;;;5092323;28;20673;-43
2021/01/12 07:02:33;;;;;;;16.77;13.17;;;0.40;99.90;;;;;;5092325;28;20207;-43
2021/01/12 07:05:12;;;;;;;16.10;11.37;;;0.40;99.90;;;;;;5092094;28;20673;-42
2021/01/12 07:07:42;;;;;;;18.83;11.93;;;0.40;99.90;;;;;;5092217;28;20260;-42
2021/01/12 07:10:11;;;;;;;14.30;10.87;;;0.50;99.90;;;;;;5092687;28;20214;-43
2021/01/12 07:12:39;;;;;;;14.43;10.43;;;0.50;99.90;;;;;;5092164;28;20293;-42
2021/01/12 07:15:08;;;;;;;13.97;11.37;;;0.60;99.90;;;;;;5091463;28;20323;-44
2021/01/12 07:17:41;;;;;;;13.93;10.60;;;0.60;99.90;;;;;;5092373;28;20210;-45
2021/01/12 07:20:16;;;;;;;18.30;12.67;;;0.70;99.90;;;;;;5092244;28;20619;-46
2021/01/12 07:22:53;;;;;;;12.30;8.87;;;0.70;99.90;;;;;;5092274;28;20202;-46
2021/01/12 07:25:22;;;;;;;12.07;8.83;;;0.80;99.90;;;;;;5092428;28;20238;-44
2021/01/12 07:28:04;;;;;;;10.95;8.77;;;0.80;99.90;;;;;;5092311;28;20256;-44
2021/01/12 07:30:32;;;;;;;11.77;8.57;;;0.90;99.90;;;;;;5092037;28;20691;-43
2021/01/12 07:33:01;;;;;;;18.53;12.63;;;0.90;99.90;;;;;;5091858;28;20246;-43
2021/01/12 07:35:29;;;;;;;12.90;9.37;;;1.00;99.90;;;;;;5091808;28;20233;-43
2021/01/12 07:37:58;;;;;;;11.73;9.33;;;1.10;99.90;;;;;;5091850;28;20297;-43
2021/01/12 07:40:26;;;;;;;11.17;8.57;;;1.10;99.90;;;;;;5091838;28;20238;-45
2021/01/12 07:42:54;;;;;;;25.20;15.73;;;1.20;99.90;;;;;;5091868;28;20290;-44
2021/01/12 07:45:23;;;;;;;12.97;10.10;;;1.20;99.90;;;;;;5092124;28;20637;-44
2021/01/12 07:47:54;;;;;;;11.97;8.60;;;1.20;99.90;;;;;;5091898;28;20717;-43
2021/01/12 07:50:22;;;;;;;10.90;8.17;;;1.20;99.90;;;;;;5092104;28;20302;-44
2021/01/12 07:52:50;;;;;;;12.73;9.67;;;1.20;99.90;;;;;;5092006;28;20305;-43
2021/01/12 07:55:18;;;;;;;11.43;9.17;;;1.30;99.90;;;;;;5091776;28;20226;-44
2021/01/12 07:57:47;;;;;;;10.60;8.55;;;1.30;99.90;;;;;;5091765;28;20654;-45
2021/01/12 08:00:17;;;;;;;11.50;9.40;;;1.20;99.90;;;;;;5091695;28;20300;-45
2021/01/12 08:02:45;;;;;;;11.37;8.53;;;1.20;99.90;;;;;;5091830;28;20289;-43
2021/01/12 08:05:16;;;;;;;13.50;9.77;;;1.30;99.90;;;;;;5091881;28;20206;-44
2021/01/12 08:07:44;;;;;;;14.70;10.73;;;1.30;99.90;;;;;;5091682;28;20214;-43
2021/01/12 08:10:11;;;;;;;13.30;9.75;;;1.30;99.90;;;;;;5091519;28;20215;-43
2021/01/12 08:13:04;;;;;;;11.40;9.33;;;1.40;99.90;;;;;;5091425;28;20239;-44
2021/01/12 08:15:31;;;;;;;13.73;10.52;;;1.50;99.90;;;;;;5091666;28;20646;-45
2021/01/12 08:17:58;;;;;;;18.45;11.57;;;1.50;99.90;;;;;;5091833;28;20625;-42
2021/01/12 08:20:27;;;;;;;15.37;10.53;;;1.50;99.90;;;;;;5091464;28;20203;-42
2021/01/12 08:22:55;;;;;;;13.68;10.60;;;1.50;99.90;;;;;;5091778;28;20571;-42
2021/01/12 08:25:23;;;;;;;15.90;11.70;;;1.60;99.90;;;;;;5092606;28;20736;-42
2021/01/12 08:27:51;;;;;;;12.00;9.60;;;1.60;99.90;;;;;;5095307;28;20297;-44
2021/01/12 08:30:22;;;;;;;11.13;8.40;;;1.70;99.90;;;;;;5095427;28;20279;-43
2021/01/12 08:32:55;;;;;;;11.70;9.52;;;1.70;99.90;;;;;;5095151;28;20207;-43
2021/01/12 08:35:27;;;;;;;13.68;10.40;;;1.70;99.90;;;;;;5095434;28;20321;-42
2021/01/12 08:37:57;;;;;;;10.10;8.10;;;1.70;99.90;;;;;;5095326;28;20202;-42
2021/01/12 08:40:42;;;;;;;12.70;9.65;;;1.80;99.90;;;;;;5095255;28;20264;-42
2021/01/12 08:43:14;;;;;;;15.63;11.13;;;1.80;99.90;;;;;;5095089;28;20294;-42
2021/01/12 08:45:43;;;;;;;11.48;8.88;;;1.80;99.90;;;;;;5095206;28;20202;-43
2021/01/12 08:48:12;;;;;;;11.80;9.37;;;1.80;99.90;;;;;;5095056;28;20681;-42
2021/01/12 08:50:39;;;;;;;17.40;12.25;;;1.90;99.90;;;;;;5095255;28;20226;-42
2021/01/12 08:53:08;;;;;;;10.10;7.70;;;1.90;99.90;;;;;;5095133;28;20204;-43
2021/01/12 08:55:35;;;;;;;13.17;10.03;;;1.90;99.90;;;;;;5094697;28;20262;-44
2021/01/12 08:58:04;;;;;;;13.85;8.93;;;2.00;99.90;;;;;;5094749;28;20294;-43
2021/01/12 09:00:33;;;;;;;11.20;8.20;;;1.90;99.90;;;;;;5094771;28;20221;-42
2021/01/12 09:03:01;;;;;;;10.60;7.68;;;2.00;99.90;;;;;;5094957;28;20660;-42
2021/01/12 09:05:32;;;;;;;11.13;8.68;;;2.00;99.90;;;;;;5094651;28;20703;-42
2021/01/12 09:08:02;;;;;;;11.27;8.80;;;1.90;99.90;;;;;;5094592;28;20207;-42
2021/01/12 09:10:29;;;;;;;10.40;8.10;;;1.90;99.90;;;;;;5094691;28;20568;-42
2021/01/12 09:12:56;;;;;;;15.75;10.48;;;1.90;99.90;;;;;;5094184;28;20289;-42
2021/01/12 09:15:31;;;;;;;9.02;7.78;;;1.90;99.90;;;;;;5094459;28;20334;-42
2021/01/12 09:18:07;;;;;;;9.88;7.97;;;1.90;99.90;;;;;;5094417;28;20691;-42
2021/01/12 09:20:34;;;;;;;11.63;8.33;;;1.90;99.90;;;;;;5094534;28;20268;-43
2021/01/12 09:23:09;;;;;;;8.88;7.22;;;1.90;99.90;;;;;;5094466;28;20272;-41
2021/01/12 09:25:38;;;;;;;11.73;7.33;;;1.80;99.90;;;;;;5094224;28;20206;-41
2021/01/12 09:28:12;;;;;;;9.30;7.17;;;1.80;99.90;;;;;;5094096;28;20703;-42
2021/01/12 09:30:40;;;;;;;8.10;6.17;;;1.70;99.90;;;;;;5094191;28;20288;-42
2021/01/12 09:33:08;;;;;;;10.97;8.03;;;1.70;99.90;;;;;;5094124;28;20301;-44
2021/01/12 09:35:35;;;;;;;9.68;7.32;;;1.70;99.90;;;;;;5093996;28;20262;-42
2021/01/12 09:38:04;;;;;;;14.98;10.38;;;1.70;99.90;;;;;;5093013;28;20234;-43
2021/01/12 09:40:31;;;;;;;8.53;6.90;;;1.70;99.90;;;;;;5093993;28;20548;-42
2021/01/12 09:42:58;;;;;;;8.95;7.05;;;1.60;99.90;;;;;;5093964;28;20231;-42
2021/01/12 09:45:26;;;;;;;8.60;6.97;;;1.60;99.90;;;;;;5093948;28;20657;-42
2021/01/12 09:47:54;;;;;;;10.17;8.27;;;1.60;99.90;;;;;;5093815;28;20199;-42
2021/01/12 09:50:23;;;;;;;8.80;7.13;;;1.60;99.90;;;;;;5093904;28;20301;-42
2021/01/12 09:52:50;;;;;;;8.35;7.05;;;1.70;99.90;;;;;;5093741;28;20612;-42
2021/01/12 09:55:17;;;;;;;8.53;6.60;;;1.70;99.90;;;;;;5093683;28;20327;-42
2021/01/12 09:57:47;;;;;;;10.07;6.90;;;1.70;99.90;;;;;;5093739;28;20238;-42
2021/01/12 10:00:15;;;;;;;8.77;7.00;;;1.70;99.90;;;;;;5093864;28;20218;-42
2021/01/12 10:02:41;;;;;;;11.35;7.03;;;1.70;99.90;;;;;;5093476;28;20304;-42
2021/01/12 10:05:10;;;;;;;8.27;6.37;;;1.70;99.90;;;;;;5093710;28;20242;-42
2021/01/12 10:07:37;;;;;;;9.23;6.87;;;1.70;99.90;;;;;;5093472;28;20624;-45
2021/01/12 10:10:06;;;;;;;8.03;6.27;;;1.70;99.90;;;;;;5093522;28;20234;-42
2021/01/12 10:12:33;;;;;;;9.70;6.63;;;1.70;99.90;;;;;;5093069;28;20735;-43
2021/01/12 10:15:00;;;;;;;12.60;9.10;;;1.70;99.90;;;;;;5093098;28;20284;-43
2021/01/12 10:17:27;;;;;;;11.20;7.90;;;1.70;99.90;;;;;;5093382;28;20210;-43
2021/01/12 10:19:54;;;;;;;12.80;7.87;;;1.70;99.90;;;;;;5093198;28;20301;-43
2021/01/12 10:22:20;;;;;;;16.83;9.50;;;1.70;99.90;;;;;;5093157;28;20293;-43
2021/01/12 10:24:50;;;;;;;12.37;8.30;;;1.70;99.90;;;;;;5093035;28;20629;-43
2021/01/12 10:27:17;;;;;;;20.07;10.27;;;1.80;99.90;;;;;;5093004;28;20701;-42
2021/01/12 10:29:44;;;;;;;16.08;10.55;;;1.80;99.90;;;;;;5093070;28;20234;-44
2021/01/12 10:32:12;;;;;;;12.13;8.40;;;1.80;99.90;;;;;;5093031;28;20242;-43
2021/01/12 10:34:39;;;;;;;11.60;7.57;;;1.80;99.90;;;;;;5093099;28;20216;-42
2021/01/12 10:37:06;;;;;;;9.52;7.32;;;1.80;99.90;;;;;;5092621;28;20226;-42
2021/01/12 10:39:33;;;;;;;8.20;6.35;;;1.80;99.90;;;;;;5092809;28;20203;-43
2021/01/12 10:42:06;;;;;;;10.50;7.60;;;1.80;99.90;;;;;;5092583;28;20272;-43
2021/01/12 10:44:33;;;;;;;10.47;7.80;;;1.80;99.90;;;;;;5092865;28;20257;-43
2021/01/12 10:47:00;;;;;;;10.82;8.75;;;1.90;99.90;;;;;;5092836;28;20207;-43
2021/01/12 10:49:27;;;;;;;8.50;6.87;;;1.90;99.90;;;;;;5092667;28;20202;-44
2021/01/12 10:51:58;;;;;;;11.57;8.13;;;2.00;99.90;;;;;;5092649;28;20214;-43
2021/01/12 10:54:26;;;;;;;7.00;5.27;;;2.00;99.90;;;;;;5092412;28;20615;-42
2021/01/12 10:56:53;;;;;;;8.65;6.00;;;2.00;99.90;;;;;;5092524;28;20476;-42
2021/01/12 10:59:22;;;;;;;10.52;7.65;;;2.10;99.90;;;;;;5092789;28;20656;-42
2021/01/12 11:01:57;;;;;;;9.05;7.18;;;2.10;99.90;;;;;;5092473;28;20206;-42
2021/01/12 11:04:25;;;;;;;7.60;6.30;;;2.20;99.90;;;;;;5092480;28;20276;-41
2021/01/12 11:06:55;;;;;;;7.00;5.73;;;2.30;99.90;;;;;;5092597;28;20289;-42
2021/01/12 11:09:22;;;;;;;10.27;7.22;;;2.30;99.90;;;;;;5092399;28;20238;-42
2021/01/12 11:11:50;;;;;;;6.93;5.70;;;2.40;99.90;;;;;;5092260;28;20333;-44
2021/01/12 11:14:22;;;;;;;7.30;5.37;;;2.40;99.90;;;;;;5092199;28;20253;-42
2021/01/12 11:16:50;;;;;;;6.45;5.15;;;2.50;99.90;;;;;;5092085;28;20310;-42
2021/01/12 11:19:18;;;;;;;9.47;7.20;;;2.50;99.90;;;;;;5092366;28;20302;-42
2021/01/12 11:21:47;;;;;;;7.10;4.90;;;2.50;99.90;;;;;;5092373;28;20291;-44
2021/01/12 11:24:16;;;;;;;8.40;5.55;;;2.40;99.90;;;;;;5092268;28;20216;-42
2021/01/12 11:26:44;;;;;;;6.72;5.93;;;2.50;99.90;;;;;;5092268;28;20238;-42
2021/01/12 11:29:11;;;;;;;7.20;5.40;;;2.50;99.90;;;;;;5092251;28;20674;-42
2021/01/12 11:31:40;;;;;;;5.90;5.18;;;2.50;99.90;;;;;;5092124;28;20207;-43
2021/01/12 11:34:09;;;;;;;8.93;6.40;;;2.60;99.90;;;;;;5092013;28;20206;-42
2021/01/12 11:36:39;;;;;;;6.90;5.23;;;2.70;99.90;;;;;;5092049;28;20231;-42
2021/01/12 11:39:08;;;;;;;6.53;5.20;;;2.70;99.90;;;;;;5092503;28;20207;-42
2021/01/12 11:41:36;;;;;;;6.80;5.07;;;2.80;99.90;;;;;;5092111;28;20298;-42
2021/01/12 11:44:03;;;;;;;6.20;5.20;;;2.80;99.90;;;;;;5091375;28;20294;-42
2021/01/12 11:46:31;;;;;;;6.00;5.37;;;2.90;99.90;;;;;;5091928;28;20207;-41
2021/01/12 11:49:00;;;;;;;6.03;5.03;;;3.00;99.90;;;;;;5091652;28;20206;-42
2021/01/12 11:51:35;;;;;;;6.43;5.32;;;2.90;99.90;;;;;;5092241;28;20307;-42
2021/01/12 11:54:03;;;;;;;7.95;5.85;;;2.90;99.90;;;;;;5092078;28;20238;-42
2021/01/12 11:56:30;;;;;;;5.37;4.87;;;2.90;99.90;;;;;;5091876;28;20303;-42
2021/01/12 11:58:57;;;;;;;6.97;5.47;;;2.90;99.90;;;;;;5091725;28;20677;-42
2021/01/12 12:01:25;;;;;;;6.60;5.47;;;2.80;99.90;;;;;;5094555;28;20217;-42
2021/01/12 12:03:52;;;;;;;7.73;5.70;;;2.80;99.90;;;;;;5096039;28;20208;-41
2021/01/12 12:06:20;;;;;;;6.68;5.20;;;2.80;99.90;;;;;;5095774;28;20347;-42
2021/01/12 12:08:47;;;;;;;6.10;5.00;;;2.90;99.90;;;;;;5095766;28;20297;-41
2021/01/12 12:11:14;;;;;;;5.43;4.87;;;2.90;99.90;;;;;;5095649;28;20329;-42
2021/01/12 12:13:41;;;;;;;5.97;5.15;;;3.00;99.90;;;;;;5095546;28;20572;-42
2021/01/12 12:16:15;;;;;;;6.40;5.30;;;3.00;99.90;;;;;;5095531;28;20229;-42
2021/01/12 12:18:43;;;;;;;5.13;4.07;;;3.10;99.90;;;;;;5095565;28;20217;-42
2021/01/12 12:21:14;;;;;;;6.73;5.23;;;3.10;99.90;;;;;;5095518;28;20297;-41
2021/01/12 12:23:43;;;;;;;5.70;5.10;;;3.10;99.90;;;;;;5095484;28;20222;-41
2021/01/12 12:26:10;;;;;;;5.67;5.07;;;3.10;99.90;;;;;;5095380;28;20291;-41
2021/01/12 12:28:37;;;;;;;5.57;4.87;;;3.10;99.90;;;;;;5095415;28;20677;-43
2021/01/12 12:31:05;;;;;;;6.23;5.47;;;3.10;99.90;;;;;;5095389;28;20211;-42
2021/01/12 12:33:35;;;;;;;5.53;4.87;;;3.10;99.90;;;;;;5095359;28;20218;-43
2021/01/12 12:36:07;;;;;;;5.30;4.10;;;3.10;99.90;;;;;;5095051;28;20219;-41
2021/01/12 12:38:35;;;;;;;4.55;4.15;;;3.10;99.90;;;;;;5094896;28;20206;-41
2021/01/12 12:41:08;;;;;;;4.57;4.17;;;3.10;99.90;;;;;;5094836;28;20218;-42
2021/01/12 12:43:38;;;;;;;5.23;4.73;;;3.10;99.90;;;;;;5094913;28;20656;-41
2021/01/12 12:46:05;;;;;;;4.90;4.20;;;3.10;99.90;;;;;;5094850;28;20229;-41